createdAt,value
2018-04-26T00:02:00.000Z,98410
2018-04-26T00:07:00.000Z,98409
2018-04-26T00:12:00.000Z,98406
2018-04-26T00:17:00.000Z,98401
2018-04-26T00:22:00.000Z,98398
2018-04-26T00:27:00.000Z,98400
2018-04-26T00:32:00.000Z,98411
2018-04-26T00:37:00.000Z,98410
2018-04-26T00:42:00.000Z,98404
2018-04-26T00:47:00.000Z,98396
2018-04-26T00:52:00.000Z,98407
2018-04-26T00:57:00.000Z,98412
2018-04-26T01:02:00.000Z,98420
2018-04-26T01:07:00.000Z,98433
2018-04-26T01:12:00.000Z,98429
2018-04-26T01:17:00.000Z,98413
2018-04-26T01:22:00.000Z,98418
2018-04-26T01:27:00.000Z,98406
2018-04-26T01:32:00.000Z,98411
2018-04-26T01:37:00.000Z,98408
2018-04-26T01:42:00.000Z,98410
2018-04-26T01:47:00.000Z,98410
2018-04-26T01:52:00.000Z,98408
2018-04-26T01:57:00.000Z,98413
2018-04-26T02:02:00.000Z,98403
2018-04-26T02:07:00.000Z,98411
2018-04-26T02:12:00.000Z,98420
2018-04-26T02:17:00.000Z,98434
2018-04-26T02:22:00.000Z,98433
2018-04-26T02:27:00.000Z,98444
2018-04-26T02:32:00.000Z,98460
2018-04-26T02:37:00.000Z,98440
2018-04-26T02:42:00.000Z,98475
2018-04-26T02:47:00.000Z,98464
2018-04-26T02:52:00.000Z,98457
2018-04-26T02:57:00.000Z,98472
2018-04-26T03:02:00.000Z,98466
2018-04-26T03:07:00.000Z,98482
2018-04-26T03:12:00.000Z,98485
2018-04-26T03:18:00.000Z,98485
2018-04-26T03:23:00.000Z,98486
2018-04-26T03:28:00.000Z,98475
2018-04-26T03:33:00.000Z,98477
2018-04-26T03:38:00.000Z,98487
2018-04-26T03:43:00.000Z,98479
2018-04-26T03:48:00.000Z,98480
2018-04-26T03:53:00.000Z,98481
2018-04-26T03:58:00.000Z,98490
2018-04-26T04:03:00.000Z,98485
2018-04-26T04:08:00.000Z,98484
2018-04-26T04:13:00.000Z,98485
2018-04-26T04:18:00.000Z,98501
2018-04-26T04:23:00.000Z,98513
2018-04-26T04:28:00.000Z,98513
2018-04-26T04:33:00.000Z,98531
2018-04-26T04:38:00.000Z,98524
2018-04-26T04:43:00.000Z,98535
2018-04-26T04:48:00.000Z,98554
2018-04-26T04:53:00.000Z,98565
2018-04-26T04:58:00.000Z,98537
2018-04-26T05:03:00.000Z,98529
2018-04-26T05:08:00.000Z,98528
2018-04-26T05:13:00.000Z,98535
2018-04-26T05:18:00.000Z,98539
2018-04-26T05:23:00.000Z,98537
2018-04-26T05:28:00.000Z,98555
2018-04-26T05:33:00.000Z,98559
2018-04-26T05:38:00.000Z,98567
2018-04-26T05:43:00.000Z,98574
2018-04-26T05:48:00.000Z,98597
2018-04-26T05:53:00.000Z,98601
2018-04-26T05:58:00.000Z,98609
2018-04-26T06:03:00.000Z,98632
2018-04-26T06:08:00.000Z,98632
2018-04-26T06:13:00.000Z,98638
2018-04-26T06:18:00.000Z,98625
2018-04-26T06:23:00.000Z,98625
2018-04-26T06:28:00.000Z,98610
2018-04-26T06:33:00.000Z,98623
2018-04-26T06:38:00.000Z,98627
2018-04-26T06:43:00.000Z,98621
2018-04-26T06:48:00.000Z,98633
2018-04-26T06:53:00.000Z,98645
2018-04-26T06:58:00.000Z,98626
2018-04-26T07:03:00.000Z,98616
2018-04-26T07:08:00.000Z,98634
2018-04-26T07:13:00.000Z,98631
2018-04-26T07:18:00.000Z,98644
2018-04-26T07:23:00.000Z,98668
2018-04-26T07:28:00.000Z,98665
2018-04-26T07:33:00.000Z,98656
2018-04-26T07:38:00.000Z,98652
2018-04-26T07:43:00.000Z,98666
2018-04-26T07:48:00.000Z,98661
2018-04-26T07:53:00.000Z,98668
2018-04-26T07:58:00.000Z,98674
2018-04-26T08:03:00.000Z,98661
2018-04-26T08:08:00.000Z,98656
2018-04-26T08:13:00.000Z,98663
2018-04-26T08:18:00.000Z,98659
2018-04-26T08:23:00.000Z,98663
2018-04-26T08:28:00.000Z,98668
2018-04-26T08:33:00.000Z,98684
2018-04-26T08:38:00.000Z,98705
2018-04-26T08:43:00.000Z,98697
2018-04-26T08:48:00.000Z,98694
2018-04-26T08:53:00.000Z,98689
2018-04-26T08:58:00.000Z,98697
2018-04-26T09:03:00.000Z,98700
2018-04-26T09:08:00.000Z,98692
2018-04-26T09:13:00.000Z,98695
2018-04-26T09:18:00.000Z,98694
2018-04-26T09:24:00.000Z,98702
2018-04-26T09:29:00.000Z,98703
2018-04-26T09:34:00.000Z,98715
2018-04-26T09:39:00.000Z,98710
2018-04-26T09:44:00.000Z,98718
2018-04-26T09:49:00.000Z,98717
2018-04-26T09:54:00.000Z,98716
2018-04-26T09:59:00.000Z,98720
2018-04-26T10:04:00.000Z,98724
2018-04-26T10:09:00.000Z,98745
2018-04-26T10:14:00.000Z,98741
2018-04-26T10:19:00.000Z,98740
2018-04-26T10:24:00.000Z,98745
2018-04-26T10:29:00.000Z,98732
2018-04-26T10:34:00.000Z,98736
2018-04-26T10:39:00.000Z,98738
2018-04-26T10:44:00.000Z,98739
2018-04-26T10:49:00.000Z,98741
2018-04-26T10:54:00.000Z,98737
2018-04-26T10:59:00.000Z,98738
2018-04-26T11:04:00.000Z,98743
2018-04-26T11:09:00.000Z,98732
2018-04-26T11:14:00.000Z,98748
2018-04-26T11:19:00.000Z,98746
2018-04-26T11:24:00.000Z,98747
2018-04-26T11:29:00.000Z,98732
2018-04-26T11:34:00.000Z,98736
2018-04-26T11:39:00.000Z,98735
2018-04-26T11:44:00.000Z,98740
2018-04-26T11:49:00.000Z,98737
2018-04-26T11:54:00.000Z,98736
2018-04-26T11:59:00.000Z,98732
2018-04-26T12:04:00.000Z,98729
2018-04-26T12:09:00.000Z,98743
2018-04-26T12:14:00.000Z,98730
2018-04-26T12:19:00.000Z,98723
2018-04-26T12:24:00.000Z,98734
2018-04-26T12:29:00.000Z,98742
2018-04-26T12:34:00.000Z,98733
2018-04-26T12:39:00.000Z,98746
2018-04-26T12:44:00.000Z,98739
2018-04-26T12:49:00.000Z,98741
2018-04-26T12:54:00.000Z,98759
2018-04-26T12:59:00.000Z,98754
2018-04-26T13:04:00.000Z,98763
2018-04-26T13:09:00.000Z,98770
2018-04-26T13:14:00.000Z,98772
2018-04-26T13:19:00.000Z,98776
2018-04-26T13:24:00.000Z,98768
2018-04-26T13:29:00.000Z,98769
2018-04-26T13:34:00.000Z,98773
2018-04-26T13:39:00.000Z,98776
2018-04-26T13:44:00.000Z,98777
2018-04-26T13:49:00.000Z,98778
2018-04-26T13:54:00.000Z,98790
2018-04-26T13:59:00.000Z,98777
2018-04-26T14:04:00.000Z,98777
2018-04-26T14:09:00.000Z,98766
2018-04-26T14:14:00.000Z,98777
2018-04-26T14:19:00.000Z,98808
2018-04-26T14:24:00.000Z,98810
2018-04-26T14:29:00.000Z,98797
2018-04-26T14:34:00.000Z,98791
2018-04-26T14:39:00.000Z,98788
2018-04-26T14:44:00.000Z,98773
2018-04-26T14:49:00.000Z,98774
2018-04-26T14:54:00.000Z,98778
2018-04-26T14:59:00.000Z,98789
2018-04-26T15:04:00.000Z,98772
2018-04-26T15:09:00.000Z,98772
2018-04-26T15:14:00.000Z,98796
2018-04-26T15:20:00.000Z,98786
2018-04-26T15:25:00.000Z,98789
2018-04-26T15:30:00.000Z,98787
2018-04-26T15:35:00.000Z,98782
2018-04-26T15:40:00.000Z,98796
2018-04-26T15:45:00.000Z,98775
2018-04-26T15:50:00.000Z,98785
2018-04-26T15:55:00.000Z,98774
2018-04-26T16:00:00.000Z,98779
2018-04-26T16:05:00.000Z,98771
2018-04-26T16:10:00.000Z,98781
2018-04-26T16:15:00.000Z,98799
2018-04-26T16:20:00.000Z,98794
2018-04-26T16:25:00.000Z,98804
2018-04-26T16:30:00.000Z,98793
2018-04-26T16:35:00.000Z,98807
2018-04-26T16:40:00.000Z,98805
2018-04-26T16:45:00.000Z,98812
2018-04-26T16:50:00.000Z,98811
2018-04-26T16:55:00.000Z,98820
2018-04-26T17:00:00.000Z,98830
2018-04-26T17:05:00.000Z,98837
2018-04-26T17:10:00.000Z,98820
2018-04-26T17:15:00.000Z,98817
2018-04-26T17:20:00.000Z,98831
2018-04-26T17:25:00.000Z,98819
2018-04-26T17:30:00.000Z,98818
2018-04-26T17:35:00.000Z,98817
2018-04-26T17:40:00.000Z,98817
2018-04-26T17:45:00.000Z,98827
2018-04-26T17:50:00.000Z,98828
2018-04-26T17:55:00.000Z,98821
2018-04-26T18:00:00.000Z,98818
2018-04-26T18:05:00.000Z,98828
2018-04-26T18:10:00.000Z,98837
2018-04-26T18:15:00.000Z,98830
2018-04-26T18:20:00.000Z,98840
2018-04-26T18:25:00.000Z,98838
2018-04-26T18:30:00.000Z,98846
2018-04-26T18:35:00.000Z,98865
2018-04-26T18:40:00.000Z,98869
2018-04-26T18:45:00.000Z,98876
2018-04-26T18:50:00.000Z,98874
2018-04-26T18:55:00.000Z,98893
2018-04-26T19:00:00.000Z,98892
2018-04-26T19:05:00.000Z,98896
2018-04-26T19:10:00.000Z,98905
2018-04-26T19:15:00.000Z,98910
2018-04-26T19:20:00.000Z,98920
2018-04-26T19:25:00.000Z,98924
2018-04-26T19:30:00.000Z,98923
2018-04-26T19:35:00.000Z,98927
2018-04-26T19:40:00.000Z,98918
2018-04-26T19:45:00.000Z,98916
2018-04-26T19:50:00.000Z,98931
2018-04-26T19:56:00.000Z,98934
2018-04-26T20:01:00.000Z,98934
2018-04-26T20:06:00.000Z,98932
2018-04-26T20:11:00.000Z,98935
2018-04-26T20:16:00.000Z,98943
2018-04-26T20:21:00.000Z,98953
2018-04-26T20:26:00.000Z,98959
2018-04-26T20:31:00.000Z,98965
2018-04-26T20:36:00.000Z,98968
2018-04-26T20:41:00.000Z,98976
2018-04-26T20:46:00.000Z,98961
2018-04-26T20:51:00.000Z,98961
2018-04-26T20:56:00.000Z,98963
2018-04-26T21:01:00.000Z,98959
2018-04-26T21:06:00.000Z,98975
2018-04-26T21:11:00.000Z,98976
2018-04-26T21:16:00.000Z,98971
2018-04-26T21:21:00.000Z,98976
2018-04-26T21:26:00.000Z,98980
2018-04-26T21:31:00.000Z,99001
2018-04-26T21:36:00.000Z,98997
2018-04-26T21:41:00.000Z,99001
2018-04-26T21:46:00.000Z,99005
2018-04-26T21:51:00.000Z,99009
2018-04-26T21:56:00.000Z,99011
2018-04-26T22:01:00.000Z,99020
2018-04-26T22:06:00.000Z,99023
2018-04-26T22:11:00.000Z,99025
2018-04-26T22:16:00.000Z,99025
2018-04-26T22:21:00.000Z,99025
2018-04-26T22:26:00.000Z,99025
2018-04-26T22:31:00.000Z,99023
2018-04-26T22:36:00.000Z,99032
2018-04-26T22:41:00.000Z,99032
2018-04-26T22:46:00.000Z,99030
2018-04-26T22:51:00.000Z,99034
2018-04-26T22:56:00.000Z,99050
2018-04-26T23:01:00.000Z,99050
2018-04-26T23:06:00.000Z,99056
2018-04-26T23:11:00.000Z,99069
2018-04-26T23:16:00.000Z,99055
2018-04-26T23:21:00.000Z,99062
2018-04-26T23:26:00.000Z,99051
2018-04-26T23:31:00.000Z,99057
2018-04-26T23:36:00.000Z,99056
2018-04-26T23:41:00.000Z,99060
2018-04-26T23:46:00.000Z,99056
2018-04-26T23:51:00.000Z,99059
2018-04-26T23:56:00.000Z,99057
